sensor_id;sensor_type;location;lat;lon;timestamp;temperature;humidity
16781;DHT22;8507;50.056;8.248;2023-06-19T00:00:56;24.60;99.90
16781;DHT22;8507;50.056;8.248;2023-06-19T00:03:21;24.50;99.90
16781;DHT22;8507;50.056;8.248;2023-06-19T00:05:47;24.40;99.90
16781;DHT22;8507;50.056;8.248;2023-06-19T00:08:12;24.30;99.90
16781;DHT22;8507;50.056;8.248;2023-06-19T00:10:38;24.30;99.90
16781;DHT22;8507;50.056;8.248;2023-06-19T00:13:03;24.20;99.90
16781;DHT22;8507;50.056;8.248;2023-06-19T00:15:29;24.10;99.90
16781;DHT22;8507;50.056;8.248;2023-06-19T00:17:58;24.10;99.90
16781;DHT22;8507;50.056;8.248;2023-06-19T00:20:24;24.00;99.90
16781;DHT22;8507;50.056;8.248;2023-06-19T00:22:50;23.80;99.90
16781;DHT22;8507;50.056;8.248;2023-06-19T00:25:18;23.70;99.90
16781;DHT22;8507;50.056;8.248;2023-06-19T00:27:45;23.70;99.90
16781;DHT22;8507;50.056;8.248;2023-06-19T00:30:10;23.60;99.90
16781;DHT22;8507;50.056;8.248;2023-06-19T00:32:36;23.50;99.90
16781;DHT22;8507;50.056;8.248;2023-06-19T00:35:15;23.40;99.90
16781;DHT22;8507;50.056;8.248;2023-06-19T00:37:41;23.30;99.90
16781;DHT22;8507;50.056;8.248;2023-06-19T00:40:19;23.20;99.90
16781;DHT22;8507;50.056;8.248;2023-06-19T00:42:46;23.20;99.90
16781;DHT22;8507;50.056;8.248;2023-06-19T00:45:12;23.20;99.90
16781;DHT22;8507;50.056;8.248;2023-06-19T00:47:38;23.20;99.90
16781;DHT22;8507;50.056;8.248;2023-06-19T00:50:04;23.20;99.90
16781;DHT22;8507;50.056;8.248;2023-06-19T00:52:30;23.20;99.90
16781;DHT22;8507;50.056;8.248;2023-06-19T00:54:55;23.20;99.90
16781;DHT22;8507;50.056;8.248;2023-06-19T00:57:21;23.20;99.90
16781;DHT22;8507;50.056;8.248;2023-06-19T00:59:47;22.90;99.90
16781;DHT22;8507;50.056;8.248;2023-06-19T01:02:13;22.70;99.90
16781;DHT22;8507;50.056;8.248;2023-06-19T01:04:38;22.80;99.90
16781;DHT22;8507;50.056;8.248;2023-06-19T01:07:12;22.70;99.90
16781;DHT22;8507;50.056;8.248;2023-06-19T01:09:51;22.70;99.90
16781;DHT22;8507;50.056;8.248;2023-06-19T01:12:26;22.80;99.90
16781;DHT22;8507;50.056;8.248;2023-06-19T01:14:57;23.00;99.90
16781;DHT22;8507;50.056;8.248;2023-06-19T01:17:25;22.90;99.90
16781;DHT22;8507;50.056;8.248;2023-06-19T01:19:51;22.80;99.90
16781;DHT22;8507;50.056;8.248;2023-06-19T01:22:30;22.80;99.90
16781;DHT22;8507;50.056;8.248;2023-06-19T01:24:56;22.90;99.90
16781;DHT22;8507;50.056;8.248;2023-06-19T01:27:23;23.10;99.90
16781;DHT22;8507;50.056;8.248;2023-06-19T01:29:50;23.20;99.90
16781;DHT22;8507;50.056;8.248;2023-06-19T01:32:31;23.30;99.90
16781;DHT22;8507;50.056;8.248;2023-06-19T01:34:58;23.30;99.90
16781;DHT22;8507;50.056;8.248;2023-06-19T01:37:25;23.30;99.90
16781;DHT22;8507;50.056;8.248;2023-06-19T01:39:56;23.10;99.90
16781;DHT22;8507;50.056;8.248;2023-06-19T01:42:22;22.90;99.90
16781;DHT22;8507;50.056;8.248;2023-06-19T01:44:48;23.00;99.90
16781;DHT22;8507;50.056;8.248;2023-06-19T01:47:14;23.00;99.90
16781;DHT22;8507;50.056;8.248;2023-06-19T01:49:45;23.10;99.90
16781;DHT22;8507;50.056;8.248;2023-06-19T01:52:11;23.00;99.90
16781;DHT22;8507;50.056;8.248;2023-06-19T01:54:36;22.80;99.90
16781;DHT22;8507;50.056;8.248;2023-06-19T01:57:02;22.70;99.90
16781;DHT22;8507;50.056;8.248;2023-06-19T01:59:28;22.70;99.90
16781;DHT22;8507;50.056;8.248;2023-06-19T02:01:53;22.60;99.90
16781;DHT22;8507;50.056;8.248;2023-06-19T02:04:19;22.50;99.90
16781;DHT22;8507;50.056;8.248;2023-06-19T02:06:44;22.50;99.90
16781;DHT22;8507;50.056;8.248;2023-06-19T02:09:10;22.40;99.90
16781;DHT22;8507;50.056;8.248;2023-06-19T02:11:36;22.40;99.90
16781;DHT22;8507;50.056;8.248;2023-06-19T02:14:01;22.40;99.90
16781;DHT22;8507;50.056;8.248;2023-06-19T02:16:27;22.40;99.90
16781;DHT22;8507;50.056;8.248;2023-06-19T02:18:52;22.40;99.90
16781;DHT22;8507;50.056;8.248;2023-06-19T02:21:18;22.40;99.90
16781;DHT22;8507;50.056;8.248;2023-06-19T02:23:43;22.30;99.90
16781;DHT22;8507;50.056;8.248;2023-06-19T02:26:09;22.30;99.90
16781;DHT22;8507;50.056;8.248;2023-06-19T02:28:34;22.30;99.90
16781;DHT22;8507;50.056;8.248;2023-06-19T02:31:00;22.30;99.90
16781;DHT22;8507;50.056;8.248;2023-06-19T02:33:25;22.30;99.90
16781;DHT22;8507;50.056;8.248;2023-06-19T02:35:51;22.30;99.90
16781;DHT22;8507;50.056;8.248;2023-06-19T02:38:17;22.30;99.90
16781;DHT22;8507;50.056;8.248;2023-06-19T02:40:46;22.30;99.90
16781;DHT22;8507;50.056;8.248;2023-06-19T02:43:12;22.30;99.90
16781;DHT22;8507;50.056;8.248;2023-06-19T02:45:37;22.30;99.90
16781;DHT22;8507;50.056;8.248;2023-06-19T02:48:04;22.30;99.90
16781;DHT22;8507;50.056;8.248;2023-06-19T02:50:30;22.30;99.90
16781;DHT22;8507;50.056;8.248;2023-06-19T02:52:55;22.30;99.90
16781;DHT22;8507;50.056;8.248;2023-06-19T02:55:21;22.30;99.90
16781;DHT22;8507;50.056;8.248;2023-06-19T02:57:46;22.30;99.90
16781;DHT22;8507;50.056;8.248;2023-06-19T03:00:13;22.20;99.90
16781;DHT22;8507;50.056;8.248;2023-06-19T03:02:39;22.20;99.90
16781;DHT22;8507;50.056;8.248;2023-06-19T03:05:09;22.20;99.90
16781;DHT22;8507;50.056;8.248;2023-06-19T03:07:35;22.20;99.90
16781;DHT22;8507;50.056;8.248;2023-06-19T03:10:00;22.20;99.90
16781;DHT22;8507;50.056;8.248;2023-06-19T03:12:26;22.30;99.90
16781;DHT22;8507;50.056;8.248;2023-06-19T03:14:51;22.30;99.90
16781;DHT22;8507;50.056;8.248;2023-06-19T03:17:17;22.30;99.90
16781;DHT22;8507;50.056;8.248;2023-06-19T03:19:42;22.30;99.90
16781;DHT22;8507;50.056;8.248;2023-06-19T03:22:08;22.20;99.90
16781;DHT22;8507;50.056;8.248;2023-06-19T03:24:33;22.20;99.90
16781;DHT22;8507;50.056;8.248;2023-06-19T03:26:59;22.10;99.90
16781;DHT22;8507;50.056;8.248;2023-06-19T03:29:27;22.10;99.90
16781;DHT22;8507;50.056;8.248;2023-06-19T03:31:53;22.10;99.90
16781;DHT22;8507;50.056;8.248;2023-06-19T03:34:18;22.00;99.90
16781;DHT22;8507;50.056;8.248;2023-06-19T03:36:44;22.00;99.90
16781;DHT22;8507;50.056;8.248;2023-06-19T03:39:09;22.10;99.90
16781;DHT22;8507;50.056;8.248;2023-06-19T03:41:35;22.20;99.90
16781;DHT22;8507;50.056;8.248;2023-06-19T03:44:01;22.10;99.90
16781;DHT22;8507;50.056;8.248;2023-06-19T03:46:26;22.10;99.90
16781;DHT22;8507;50.056;8.248;2023-06-19T03:48:52;22.10;99.90
16781;DHT22;8507;50.056;8.248;2023-06-19T03:51:17;22.20;99.90
16781;DHT22;8507;50.056;8.248;2023-06-19T03:53:43;22.20;99.90
16781;DHT22;8507;50.056;8.248;2023-06-19T03:56:11;22.30;99.90
16781;DHT22;8507;50.056;8.248;2023-06-19T03:58:37;22.30;99.90
16781;DHT22;8507;50.056;8.248;2023-06-19T04:01:02;22.30;99.90
16781;DHT22;8507;50.056;8.248;2023-06-19T04:03:28;22.30;99.90
16781;DHT22;8507;50.056;8.248;2023-06-19T04:05:54;22.20;99.90
16781;DHT22;8507;50.056;8.248;2023-06-19T04:08:19;22.30;99.90
16781;DHT22;8507;50.056;8.248;2023-06-19T04:10:45;22.20;99.90
16781;DHT22;8507;50.056;8.248;2023-06-19T04:13:12;22.30;99.90
16781;DHT22;8507;50.056;8.248;2023-06-19T04:15:37;22.20;99.90
16781;DHT22;8507;50.056;8.248;2023-06-19T04:18:03;22.30;99.90
16781;DHT22;8507;50.056;8.248;2023-06-19T04:20:29;22.40;99.90
16781;DHT22;8507;50.056;8.248;2023-06-19T04:22:54;22.40;99.90
16781;DHT22;8507;50.056;8.248;2023-06-19T04:25:20;22.50;99.90
16781;DHT22;8507;50.056;8.248;2023-06-19T04:27:45;22.50;99.90
16781;DHT22;8507;50.056;8.248;2023-06-19T04:30:11;22.60;99.90
16781;DHT22;8507;50.056;8.248;2023-06-19T04:32:37;22.80;99.90
16781;DHT22;8507;50.056;8.248;2023-06-19T04:35:07;22.80;99.90
16781;DHT22;8507;50.056;8.248;2023-06-19T04:37:33;22.90;99.90
16781;DHT22;8507;50.056;8.248;2023-06-19T04:39:59;22.90;99.90
16781;DHT22;8507;50.056;8.248;2023-06-19T04:42:24;22.90;99.90
16781;DHT22;8507;50.056;8.248;2023-06-19T04:44:51;23.10;99.90
16781;DHT22;8507;50.056;8.248;2023-06-19T04:47:19;23.40;99.90
16781;DHT22;8507;50.056;8.248;2023-06-19T04:49:45;23.60;99.90
16781;DHT22;8507;50.056;8.248;2023-06-19T04:52:10;23.90;99.90
16781;DHT22;8507;50.056;8.248;2023-06-19T04:54:36;24.10;99.90
16781;DHT22;8507;50.056;8.248;2023-06-19T04:57:02;24.10;99.90
16781;DHT22;8507;50.056;8.248;2023-06-19T04:59:28;24.10;99.90
16781;DHT22;8507;50.056;8.248;2023-06-19T05:01:56;24.10;99.90
16781;DHT22;8507;50.056;8.248;2023-06-19T05:04:21;24.40;99.90
16781;DHT22;8507;50.056;8.248;2023-06-19T05:06:50;24.40;99.90
16781;DHT22;8507;50.056;8.248;2023-06-19T05:09:16;24.50;99.90
16781;DHT22;8507;50.056;8.248;2023-06-19T05:11:41;24.50;99.90
16781;DHT22;8507;50.056;8.248;2023-06-19T05:14:07;24.60;99.90
16781;DHT22;8507;50.056;8.248;2023-06-19T05:16:33;24.70;99.90
16781;DHT22;8507;50.056;8.248;2023-06-19T05:18:59;24.60;99.90
16781;DHT22;8507;50.056;8.248;2023-06-19T05:21:25;24.60;99.90
16781;DHT22;8507;50.056;8.248;2023-06-19T05:23:50;24.60;99.90
16781;DHT22;8507;50.056;8.248;2023-06-19T05:26:18;24.60;99.90
16781;DHT22;8507;50.056;8.248;2023-06-19T05:28:44;24.60;99.90
16781;DHT22;8507;50.056;8.248;2023-06-19T05:31:09;24.60;99.90
16781;DHT22;8507;50.056;8.248;2023-06-19T05:33:35;24.50;99.90
16781;DHT22;8507;50.056;8.248;2023-06-19T05:36:00;24.60;99.90
16781;DHT22;8507;50.056;8.248;2023-06-19T05:38:26;24.60;99.90
16781;DHT22;8507;50.056;8.248;2023-06-19T05:40:53;24.80;99.90
16781;DHT22;8507;50.056;8.248;2023-06-19T05:43:19;24.80;99.90
16781;DHT22;8507;50.056;8.248;2023-06-19T05:45:45;24.90;99.90
16781;DHT22;8507;50.056;8.248;2023-06-19T05:48:10;24.90;99.90
16781;DHT22;8507;50.056;8.248;2023-06-19T05:50:36;25.00;99.90
16781;DHT22;8507;50.056;8.248;2023-06-19T05:53:01;25.00;99.90
16781;DHT22;8507;50.056;8.248;2023-06-19T05:55:27;24.80;99.90
16781;DHT22;8507;50.056;8.248;2023-06-19T05:57:53;25.00;99.90
16781;DHT22;8507;50.056;8.248;2023-06-19T06:00:19;25.20;99.90
16781;DHT22;8507;50.056;8.248;2023-06-19T06:02:45;25.20;99.90
16781;DHT22;8507;50.056;8.248;2023-06-19T06:05:11;25.30;99.90
16781;DHT22;8507;50.056;8.248;2023-06-19T06:07:37;25.40;99.90
16781;DHT22;8507;50.056;8.248;2023-06-19T06:10:03;25.40;99.90
16781;DHT22;8507;50.056;8.248;2023-06-19T06:12:28;25.50;99.90
16781;DHT22;8507;50.056;8.248;2023-06-19T06:14:54;25.70;99.90
16781;DHT22;8507;50.056;8.248;2023-06-19T06:17:19;25.70;99.90
16781;DHT22;8507;50.056;8.248;2023-06-19T06:19:45;25.70;99.90
16781;DHT22;8507;50.056;8.248;2023-06-19T06:22:10;25.50;99.90
16781;DHT22;8507;50.056;8.248;2023-06-19T06:24:36;25.50;99.90
16781;DHT22;8507;50.056;8.248;2023-06-19T06:27:02;25.60;99.90
16781;DHT22;8507;50.056;8.248;2023-06-19T06:29:28;25.30;99.90
16781;DHT22;8507;50.056;8.248;2023-06-19T06:32:03;25.10;99.90
16781;DHT22;8507;50.056;8.248;2023-06-19T06:34:29;24.90;99.90
16781;DHT22;8507;50.056;8.248;2023-06-19T06:36:54;25.00;99.90
16781;DHT22;8507;50.056;8.248;2023-06-19T06:39:20;25.00;99.90
16781;DHT22;8507;50.056;8.248;2023-06-19T06:41:45;25.20;99.90
16781;DHT22;8507;50.056;8.248;2023-06-19T06:44:11;25.20;99.90
16781;DHT22;8507;50.056;8.248;2023-06-19T06:46:36;25.50;99.90
16781;DHT22;8507;50.056;8.248;2023-06-19T06:49:02;25.60;99.90
16781;DHT22;8507;50.056;8.248;2023-06-19T06:51:27;25.80;99.90
16781;DHT22;8507;50.056;8.248;2023-06-19T06:53:53;25.90;99.90
16781;DHT22;8507;50.056;8.248;2023-06-19T06:56:19;26.00;99.90
16781;DHT22;8507;50.056;8.248;2023-06-19T06:58:44;26.00;99.90
16781;DHT22;8507;50.056;8.248;2023-06-19T07:01:12;26.10;99.90
16781;DHT22;8507;50.056;8.248;2023-06-19T07:03:37;26.20;99.90
16781;DHT22;8507;50.056;8.248;2023-06-19T07:06:04;26.40;99.90
16781;DHT22;8507;50.056;8.248;2023-06-19T07:08:30;26.60;99.90
16781;DHT22;8507;50.056;8.248;2023-06-19T07:10:56;26.30;99.90
16781;DHT22;8507;50.056;8.248;2023-06-19T07:13:21;26.40;99.90
16781;DHT22;8507;50.056;8.248;2023-06-19T07:15:47;26.60;99.90
16781;DHT22;8507;50.056;8.248;2023-06-19T07:18:12;26.70;99.90
16781;DHT22;8507;50.056;8.248;2023-06-19T07:20:38;26.80;99.90
16781;DHT22;8507;50.056;8.248;2023-06-19T07:23:03;26.90;99.90
16781;DHT22;8507;50.056;8.248;2023-06-19T07:25:29;26.80;99.90
16781;DHT22;8507;50.056;8.248;2023-06-19T07:27:55;26.90;99.90
16781;DHT22;8507;50.056;8.248;2023-06-19T07:30:20;27.00;99.90
16781;DHT22;8507;50.056;8.248;2023-06-19T07:32:46;27.00;99.90
16781;DHT22;8507;50.056;8.248;2023-06-19T07:35:12;27.20;99.90
16781;DHT22;8507;50.056;8.248;2023-06-19T07:37:38;27.50;99.90
16781;DHT22;8507;50.056;8.248;2023-06-19T07:40:03;27.60;99.90
16781;DHT22;8507;50.056;8.248;2023-06-19T07:42:29;27.50;99.90
16781;DHT22;8507;50.056;8.248;2023-06-19T07:44:54;27.70;99.90
16781;DHT22;8507;50.056;8.248;2023-06-19T07:47:20;27.80;99.90
16781;DHT22;8507;50.056;8.248;2023-06-19T07:49:46;27.90;99.90
16781;DHT22;8507;50.056;8.248;2023-06-19T07:52:12;27.90;99.90
16781;DHT22;8507;50.056;8.248;2023-06-19T07:54:55;27.90;99.90
16781;DHT22;8507;50.056;8.248;2023-06-19T07:57:22;28.00;99.90
16781;DHT22;8507;50.056;8.248;2023-06-19T07:59:49;28.00;99.90
16781;DHT22;8507;50.056;8.248;2023-06-19T08:02:15;28.20;99.90
16781;DHT22;8507;50.056;8.248;2023-06-19T08:04:40;28.40;99.90
16781;DHT22;8507;50.056;8.248;2023-06-19T08:07:06;28.40;99.90
16781;DHT22;8507;50.056;8.248;2023-06-19T08:09:32;28.60;99.90
16781;DHT22;8507;50.056;8.248;2023-06-19T08:11:58;28.70;99.90
16781;DHT22;8507;50.056;8.248;2023-06-19T08:14:24;28.80;99.90
16781;DHT22;8507;50.056;8.248;2023-06-19T08:16:49;28.90;99.90
16781;DHT22;8507;50.056;8.248;2023-06-19T08:19:15;29.00;99.90
16781;DHT22;8507;50.056;8.248;2023-06-19T08:21:40;29.10;99.90
16781;DHT22;8507;50.056;8.248;2023-06-19T08:24:06;29.40;99.90
16781;DHT22;8507;50.056;8.248;2023-06-19T08:26:32;29.30;99.90
16781;DHT22;8507;50.056;8.248;2023-06-19T08:28:57;29.30;99.90
16781;DHT22;8507;50.056;8.248;2023-06-19T08:31:23;28.90;99.90
16781;DHT22;8507;50.056;8.248;2023-06-19T08:33:53;28.70;99.90
16781;DHT22;8507;50.056;8.248;2023-06-19T08:36:19;28.60;99.90
16781;DHT22;8507;50.056;8.248;2023-06-19T08:38:44;28.50;99.90
16781;DHT22;8507;50.056;8.248;2023-06-19T08:41:12;28.50;99.90
16781;DHT22;8507;50.056;8.248;2023-06-19T08:43:38;28.40;99.90
16781;DHT22;8507;50.056;8.248;2023-06-19T08:46:11;28.10;99.90
16781;DHT22;8507;50.056;8.248;2023-06-19T08:48:37;27.90;99.90
16781;DHT22;8507;50.056;8.248;2023-06-19T08:51:04;27.70;99.90
16781;DHT22;8507;50.056;8.248;2023-06-19T08:53:35;27.80;99.90
16781;DHT22;8507;50.056;8.248;2023-06-19T08:56:03;27.90;99.90
16781;DHT22;8507;50.056;8.248;2023-06-19T08:58:29;27.90;99.90
16781;DHT22;8507;50.056;8.248;2023-06-19T09:00:55;27.80;99.90
16781;DHT22;8507;50.056;8.248;2023-06-19T09:03:22;27.80;99.90
16781;DHT22;8507;50.056;8.248;2023-06-19T09:05:48;27.70;99.90
16781;DHT22;8507;50.056;8.248;2023-06-19T09:08:18;27.80;99.90
16781;DHT22;8507;50.056;8.248;2023-06-19T09:13:24;27.90;99.90
16781;DHT22;8507;50.056;8.248;2023-06-19T09:16:01;28.20;99.90
16781;DHT22;8507;50.056;8.248;2023-06-19T09:18:29;28.40;99.90
16781;DHT22;8507;50.056;8.248;2023-06-19T09:20:55;28.80;99.90
16781;DHT22;8507;50.056;8.248;2023-06-19T09:23:21;28.90;99.90
16781;DHT22;8507;50.056;8.248;2023-06-19T09:25:48;29.30;99.90
16781;DHT22;8507;50.056;8.248;2023-06-19T09:28:22;29.30;99.90
16781;DHT22;8507;50.056;8.248;2023-06-19T09:30:55;29.40;99.90
16781;DHT22;8507;50.056;8.248;2023-06-19T09:33:22;29.70;99.90
16781;DHT22;8507;50.056;8.248;2023-06-19T09:35:50;29.60;99.90
16781;DHT22;8507;50.056;8.248;2023-06-19T09:38:17;29.70;99.90
16781;DHT22;8507;50.056;8.248;2023-06-19T09:40:47;29.50;99.90
16781;DHT22;8507;50.056;8.248;2023-06-19T09:43:18;30.00;99.90
16781;DHT22;8507;50.056;8.248;2023-06-19T09:45:48;30.00;99.90
16781;DHT22;8507;50.056;8.248;2023-06-19T09:48:19;30.20;99.90
16781;DHT22;8507;50.056;8.248;2023-06-19T09:50:50;30.40;99.90
16781;DHT22;8507;50.056;8.248;2023-06-19T09:53:17;30.40;99.90
16781;DHT22;8507;50.056;8.248;2023-06-19T09:55:43;30.90;99.90
16781;DHT22;8507;50.056;8.248;2023-06-19T09:58:09;31.00;99.90
16781;DHT22;8507;50.056;8.248;2023-06-19T10:00:35;31.00;99.90
16781;DHT22;8507;50.056;8.248;2023-06-19T10:03:02;31.10;99.90
16781;DHT22;8507;50.056;8.248;2023-06-19T10:05:31;30.80;99.90
16781;DHT22;8507;50.056;8.248;2023-06-19T10:07:57;30.80;99.90
16781;DHT22;8507;50.056;8.248;2023-06-19T10:10:26;30.60;99.90
16781;DHT22;8507;50.056;8.248;2023-06-19T10:12:55;30.20;99.90
16781;DHT22;8507;50.056;8.248;2023-06-19T10:15:25;30.20;99.90
16781;DHT22;8507;50.056;8.248;2023-06-19T10:17:52;30.00;99.90
16781;DHT22;8507;50.056;8.248;2023-06-19T10:20:28;29.70;99.90
16781;DHT22;8507;50.056;8.248;2023-06-19T10:23:03;29.60;99.90
16781;DHT22;8507;50.056;8.248;2023-06-19T10:25:34;29.60;99.90
16781;DHT22;8507;50.056;8.248;2023-06-19T10:28:00;29.80;99.90
16781;DHT22;8507;50.056;8.248;2023-06-19T10:30:26;29.80;99.90
16781;DHT22;8507;50.056;8.248;2023-06-19T10:32:52;29.70;99.90
16781;DHT22;8507;50.056;8.248;2023-06-19T10:35:19;29.80;99.90
16781;DHT22;8507;50.056;8.248;2023-06-19T10:37:49;29.90;99.90
16781;DHT22;8507;50.056;8.248;2023-06-19T10:40:16;29.90;99.90
16781;DHT22;8507;50.056;8.248;2023-06-19T10:42:42;29.90;99.90
16781;DHT22;8507;50.056;8.248;2023-06-19T10:45:10;29.90;99.90
16781;DHT22;8507;50.056;8.248;2023-06-19T10:47:39;29.90;99.90
16781;DHT22;8507;50.056;8.248;2023-06-19T10:52:40;29.90;99.90
16781;DHT22;8507;50.056;8.248;2023-06-19T10:55:06;30.00;99.90
16781;DHT22;8507;50.056;8.248;2023-06-19T10:57:32;30.30;99.90
16781;DHT22;8507;50.056;8.248;2023-06-19T10:59:58;30.50;99.90
16781;DHT22;8507;50.056;8.248;2023-06-19T11:02:24;30.60;99.90
16781;DHT22;8507;50.056;8.248;2023-06-19T11:04:53;30.90;99.90
16781;DHT22;8507;50.056;8.248;2023-06-19T11:07:19;31.00;99.90
16781;DHT22;8507;50.056;8.248;2023-06-19T11:09:44;31.20;99.90
16781;DHT22;8507;50.056;8.248;2023-06-19T11:12:11;31.00;99.90
16781;DHT22;8507;50.056;8.248;2023-06-19T11:14:37;30.80;99.90
16781;DHT22;8507;50.056;8.248;2023-06-19T11:17:08;31.10;99.90
16781;DHT22;8507;50.056;8.248;2023-06-19T11:19:35;30.80;99.90
16781;DHT22;8507;50.056;8.248;2023-06-19T11:22:02;31.30;99.90
16781;DHT22;8507;50.056;8.248;2023-06-19T11:24:28;31.60;99.90
16781;DHT22;8507;50.056;8.248;2023-06-19T11:26:56;31.70;99.90
16781;DHT22;8507;50.056;8.248;2023-06-19T11:29:23;31.40;99.90
16781;DHT22;8507;50.056;8.248;2023-06-19T11:31:51;31.90;99.90
16781;DHT22;8507;50.056;8.248;2023-06-19T11:34:19;32.10;99.90
16781;DHT22;8507;50.056;8.248;2023-06-19T11:36:44;32.20;99.90
16781;DHT22;8507;50.056;8.248;2023-06-19T11:39:14;32.30;99.90
16781;DHT22;8507;50.056;8.248;2023-06-19T11:41:41;32.60;99.90
16781;DHT22;8507;50.056;8.248;2023-06-19T11:44:08;32.70;99.90
16781;DHT22;8507;50.056;8.248;2023-06-19T11:46:37;32.80;99.90
16781;DHT22;8507;50.056;8.248;2023-06-19T11:49:13;33.20;99.90
16781;DHT22;8507;50.056;8.248;2023-06-19T11:51:40;33.40;99.90
16781;DHT22;8507;50.056;8.248;2023-06-19T11:54:07;33.50;99.90
16781;DHT22;8507;50.056;8.248;2023-06-19T11:56:34;33.60;99.90
16781;DHT22;8507;50.056;8.248;2023-06-19T11:59:00;33.50;99.90
16781;DHT22;8507;50.056;8.248;2023-06-19T12:01:26;32.80;99.90
16781;DHT22;8507;50.056;8.248;2023-06-19T12:03:51;32.60;99.90
16781;DHT22;8507;50.056;8.248;2023-06-19T12:06:17;32.70;99.90
16781;DHT22;8507;50.056;8.248;2023-06-19T12:08:43;32.90;99.90
16781;DHT22;8507;50.056;8.248;2023-06-19T12:11:09;32.80;99.90
16781;DHT22;8507;50.056;8.248;2023-06-19T12:13:35;32.80;99.90
16781;DHT22;8507;50.056;8.248;2023-06-19T12:16:01;33.10;99.90
16781;DHT22;8507;50.056;8.248;2023-06-19T12:18:27;33.70;99.90
16781;DHT22;8507;50.056;8.248;2023-06-19T12:20:52;33.70;99.90
16781;DHT22;8507;50.056;8.248;2023-06-19T12:23:18;33.90;99.90
16781;DHT22;8507;50.056;8.248;2023-06-19T12:25:44;33.50;99.90
16781;DHT22;8507;50.056;8.248;2023-06-19T12:28:10;33.20;99.90
16781;DHT22;8507;50.056;8.248;2023-06-19T12:30:36;32.40;99.90
16781;DHT22;8507;50.056;8.248;2023-06-19T12:33:02;32.50;99.90
16781;DHT22;8507;50.056;8.248;2023-06-19T12:35:29;32.40;99.90
16781;DHT22;8507;50.056;8.248;2023-06-19T12:37:54;32.40;99.90
16781;DHT22;8507;50.056;8.248;2023-06-19T12:40:20;32.80;99.90
16781;DHT22;8507;50.056;8.248;2023-06-19T12:42:46;31.70;99.90
16781;DHT22;8507;50.056;8.248;2023-06-19T12:45:12;31.90;99.90
16781;DHT22;8507;50.056;8.248;2023-06-19T12:47:38;32.30;99.90
16781;DHT22;8507;50.056;8.248;2023-06-19T12:50:04;32.80;99.90
16781;DHT22;8507;50.056;8.248;2023-06-19T12:52:29;32.80;99.90
16781;DHT22;8507;50.056;8.248;2023-06-19T12:54:56;32.80;99.90
16781;DHT22;8507;50.056;8.248;2023-06-19T12:57:22;32.90;99.90
16781;DHT22;8507;50.056;8.248;2023-06-19T12:59:48;33.10;99.90
16781;DHT22;8507;50.056;8.248;2023-06-19T13:02:13;32.90;99.90
16781;DHT22;8507;50.056;8.248;2023-06-19T13:04:39;32.70;99.90
16781;DHT22;8507;50.056;8.248;2023-06-19T13:07:05;32.80;99.90
16781;DHT22;8507;50.056;8.248;2023-06-19T13:09:30;33.10;99.90
16781;DHT22;8507;50.056;8.248;2023-06-19T13:11:56;33.30;99.90
16781;DHT22;8507;50.056;8.248;2023-06-19T13:14:21;33.70;99.90
16781;DHT22;8507;50.056;8.248;2023-06-19T13:16:47;33.40;99.90
16781;DHT22;8507;50.056;8.248;2023-06-19T13:19:14;33.50;99.90
16781;DHT22;8507;50.056;8.248;2023-06-19T13:21:40;33.40;99.90
16781;DHT22;8507;50.056;8.248;2023-06-19T13:24:06;33.30;99.90
16781;DHT22;8507;50.056;8.248;2023-06-19T13:26:32;32.90;99.90
16781;DHT22;8507;50.056;8.248;2023-06-19T13:28:57;32.90;99.90
16781;DHT22;8507;50.056;8.248;2023-06-19T13:31:24;32.80;99.90
16781;DHT22;8507;50.056;8.248;2023-06-19T13:33:50;32.80;99.90
16781;DHT22;8507;50.056;8.248;2023-06-19T13:36:16;32.60;99.90
16781;DHT22;8507;50.056;8.248;2023-06-19T13:38:44;32.90;99.90
16781;DHT22;8507;50.056;8.248;2023-06-19T13:41:09;33.10;99.90
16781;DHT22;8507;50.056;8.248;2023-06-19T13:43:35;33.20;99.90
16781;DHT22;8507;50.056;8.248;2023-06-19T13:46:00;33.20;99.90
16781;DHT22;8507;50.056;8.248;2023-06-19T13:48:28;33.10;99.90
16781;DHT22;8507;50.056;8.248;2023-06-19T13:50:54;33.00;99.90
16781;DHT22;8507;50.056;8.248;2023-06-19T13:53:19;32.80;99.90
16781;DHT22;8507;50.056;8.248;2023-06-19T13:55:46;32.60;99.90
16781;DHT22;8507;50.056;8.248;2023-06-19T13:58:12;32.60;99.90
16781;DHT22;8507;50.056;8.248;2023-06-19T14:00:38;32.90;99.90
16781;DHT22;8507;50.056;8.248;2023-06-19T14:03:04;33.30;99.90
16781;DHT22;8507;50.056;8.248;2023-06-19T14:05:32;33.50;99.90
16781;DHT22;8507;50.056;8.248;2023-06-19T14:07:58;33.60;99.90
16781;DHT22;8507;50.056;8.248;2023-06-19T14:10:24;32.90;99.90
16781;DHT22;8507;50.056;8.248;2023-06-19T14:12:50;33.20;99.90
16781;DHT22;8507;50.056;8.248;2023-06-19T14:15:15;33.30;99.90
16781;DHT22;8507;50.056;8.248;2023-06-19T14:17:41;33.00;99.90
16781;DHT22;8507;50.056;8.248;2023-06-19T14:20:10;33.00;99.90
16781;DHT22;8507;50.056;8.248;2023-06-19T14:22:36;33.10;99.90
16781;DHT22;8507;50.056;8.248;2023-06-19T14:25:01;33.00;99.90
16781;DHT22;8507;50.056;8.248;2023-06-19T14:27:28;32.80;99.90
16781;DHT22;8507;50.056;8.248;2023-06-19T14:29:56;32.90;99.90
16781;DHT22;8507;50.056;8.248;2023-06-19T14:32:22;32.80;99.90
16781;DHT22;8507;50.056;8.248;2023-06-19T14:34:51;32.60;99.90
16781;DHT22;8507;50.056;8.248;2023-06-19T14:37:17;32.60;99.90
16781;DHT22;8507;50.056;8.248;2023-06-19T14:39:43;32.60;99.90
16781;DHT22;8507;50.056;8.248;2023-06-19T14:42:08;32.60;99.90
16781;DHT22;8507;50.056;8.248;2023-06-19T14:44:35;32.60;99.90
16781;DHT22;8507;50.056;8.248;2023-06-19T14:47:01;32.10;99.90
16781;DHT22;8507;50.056;8.248;2023-06-19T14:49:27;32.30;99.90
16781;DHT22;8507;50.056;8.248;2023-06-19T14:51:53;32.30;99.90
16781;DHT22;8507;50.056;8.248;2023-06-19T14:54:18;32.50;99.90
16781;DHT22;8507;50.056;8.248;2023-06-19T14:56:44;32.70;99.90
16781;DHT22;8507;50.056;8.248;2023-06-19T14:59:13;32.60;99.90
16781;DHT22;8507;50.056;8.248;2023-06-19T15:01:39;32.60;99.90
16781;DHT22;8507;50.056;8.248;2023-06-19T15:04:04;32.40;99.90
16781;DHT22;8507;50.056;8.248;2023-06-19T15:06:30;32.20;99.90
16781;DHT22;8507;50.056;8.248;2023-06-19T15:08:55;32.30;99.90
16781;DHT22;8507;50.056;8.248;2023-06-19T15:11:21;32.10;99.90
16781;DHT22;8507;50.056;8.248;2023-06-19T15:13:46;32.10;99.90
16781;DHT22;8507;50.056;8.248;2023-06-19T15:16:12;32.10;99.90
16781;DHT22;8507;50.056;8.248;2023-06-19T15:18:38;31.80;99.90
16781;DHT22;8507;50.056;8.248;2023-06-19T15:21:04;31.60;99.90
16781;DHT22;8507;50.056;8.248;2023-06-19T15:23:32;31.50;99.90
16781;DHT22;8507;50.056;8.248;2023-06-19T15:25:58;31.80;99.90
16781;DHT22;8507;50.056;8.248;2023-06-19T15:28:23;31.80;99.90
16781;DHT22;8507;50.056;8.248;2023-06-19T15:30:49;32.00;99.90
16781;DHT22;8507;50.056;8.248;2023-06-19T15:33:15;32.00;99.90
16781;DHT22;8507;50.056;8.248;2023-06-19T15:35:40;31.90;99.90
16781;DHT22;8507;50.056;8.248;2023-06-19T15:38:06;31.70;99.90
16781;DHT22;8507;50.056;8.248;2023-06-19T15:40:32;31.70;99.90
16781;DHT22;8507;50.056;8.248;2023-06-19T15:42:58;31.60;99.90
16781;DHT22;8507;50.056;8.248;2023-06-19T15:45:23;31.50;99.90